sensor_id;sensor_type;location;lat;lon;timestamp;pressure;altitude;pressure_sealevel;temperature;humidity
39949;BME280;29070;48.102;-1.652;2023-04-24T00:04:47;100807.34;;;10.71;64.78
39949;BME280;29070;48.102;-1.652;2023-04-24T00:09:48;100813.63;;;10.70;64.96
39949;BME280;29070;48.102;-1.652;2023-04-24T00:14:49;100807.56;;;10.70;64.97
39949;BME280;29070;48.102;-1.652;2023-04-24T00:19:49;100803.44;;;10.60;65.14
39949;BME280;29070;48.102;-1.652;2023-04-24T00:24:58;100809.91;;;10.58;65.42
39949;BME280;29070;48.102;-1.652;2023-04-24T00:29:58;100807.84;;;10.53;65.17
39949;BME280;29070;48.102;-1.652;2023-04-24T00:34:59;100812.28;;;10.53;65.39
39949;BME280;29070;48.102;-1.652;2023-04-24T00:39:59;100803.56;;;10.45;65.58
39949;BME280;29070;48.102;-1.652;2023-04-24T00:45:00;100800.94;;;10.45;65.39
39949;BME280;29070;48.102;-1.652;2023-04-24T00:50:03;100801.31;;;10.42;65.61
39949;BME280;29070;48.102;-1.652;2023-04-24T00:55:04;100818.25;;;10.40;65.57
39949;BME280;29070;48.102;-1.652;2023-04-24T01:00:06;100822.66;;;10.33;65.58
39949;BME280;29070;48.102;-1.652;2023-04-24T01:05:12;100820.22;;;10.31;65.99
39949;BME280;29070;48.102;-1.652;2023-04-24T01:10:14;100816.59;;;10.32;65.99
39949;BME280;29070;48.102;-1.652;2023-04-24T01:15:15;100834.13;;;10.32;66.16
39949;BME280;29070;48.102;-1.652;2023-04-24T01:20:17;100839.38;;;10.32;66.33
39949;BME280;29070;48.102;-1.652;2023-04-24T01:25:17;100843.81;;;10.31;66.54
39949;BME280;29070;48.102;-1.652;2023-04-24T01:30:18;100841.94;;;10.25;66.61
39949;BME280;29070;48.102;-1.652;2023-04-24T01:35:19;100840.31;;;10.24;66.91
39949;BME280;29070;48.102;-1.652;2023-04-24T01:40:20;100845.50;;;10.17;66.97
39949;BME280;29070;48.102;-1.652;2023-04-24T01:45:20;100847.13;;;10.18;67.14
39949;BME280;29070;48.102;-1.652;2023-04-24T01:50:22;100842.25;;;10.15;67.27
39949;BME280;29070;48.102;-1.652;2023-04-24T01:55:22;100848.28;;;10.16;67.37
39949;BME280;29070;48.102;-1.652;2023-04-24T02:00:23;100848.94;;;10.18;67.64
39949;BME280;29070;48.102;-1.652;2023-04-24T02:05:24;100845.50;;;10.17;67.46
39949;BME280;29070;48.102;-1.652;2023-04-24T02:10:25;100845.50;;;10.17;67.47
39949;BME280;29070;48.102;-1.652;2023-04-24T02:15:25;100835.44;;;10.21;67.57
39949;BME280;29070;48.102;-1.652;2023-04-24T02:20:26;100831.38;;;10.18;67.68
39949;BME280;29070;48.102;-1.652;2023-04-24T02:25:26;100837.00;;;10.15;67.63
39949;BME280;29070;48.102;-1.652;2023-04-24T02:30:26;100847.50;;;10.15;67.72
39949;BME280;29070;48.102;-1.652;2023-04-24T02:35:27;100851.88;;;10.08;67.68
39949;BME280;29070;48.102;-1.652;2023-04-24T02:40:27;100850.25;;;10.07;68.15
39949;BME280;29070;48.102;-1.652;2023-04-24T02:45:27;100866.38;;;10.04;68.18
39949;BME280;29070;48.102;-1.652;2023-04-24T02:50:28;100871.19;;;10.00;68.31
39949;BME280;29070;48.102;-1.652;2023-04-24T02:55:28;100870.91;;;9.95;68.36
39949;BME280;29070;48.102;-1.652;2023-04-24T03:00:29;100880.59;;;9.95;68.33
39949;BME280;29070;48.102;-1.652;2023-04-24T03:05:30;100878.78;;;9.95;68.44
39949;BME280;29070;48.102;-1.652;2023-04-24T03:10:31;100886.66;;;9.95;68.66
39949;BME280;29070;48.102;-1.652;2023-04-24T03:15:32;100888.06;;;9.98;68.66
39949;BME280;29070;48.102;-1.652;2023-04-24T03:20:32;100884.84;;;9.96;68.60
39949;BME280;29070;48.102;-1.652;2023-04-24T03:25:32;100888.06;;;9.98;68.80
39949;BME280;29070;48.102;-1.652;2023-04-24T03:30:33;100882.84;;;9.98;69.02
39949;BME280;29070;48.102;-1.652;2023-04-24T03:35:33;100891.72;;;9.97;68.83
39949;BME280;29070;48.102;-1.652;2023-04-24T03:40:33;100894.59;;;10.02;68.87
39949;BME280;29070;48.102;-1.652;2023-04-24T03:45:34;100893.31;;;9.98;69.11
39949;BME280;29070;48.102;-1.652;2023-04-24T03:50:34;100896.13;;;9.96;69.03
39949;BME280;29070;48.102;-1.652;2023-04-24T03:55:35;100907.81;;;9.93;68.94
39949;BME280;29070;48.102;-1.652;2023-04-24T04:00:35;100908.34;;;9.89;69.33
39949;BME280;29070;48.102;-1.652;2023-04-24T04:05:37;100906.56;;;9.89;69.17
39949;BME280;29070;48.102;-1.652;2023-04-24T04:10:37;100917.69;;;9.91;69.07
39949;BME280;29070;48.102;-1.652;2023-04-24T04:15:39;100919.50;;;9.91;69.09
39949;BME280;29070;48.102;-1.652;2023-04-24T04:20:39;100921.91;;;9.92;69.42
39949;BME280;29070;48.102;-1.652;2023-04-24T04:25:39;100938.03;;;9.89;69.23
39949;BME280;29070;48.102;-1.652;2023-04-24T04:30:40;100943.63;;;9.86;69.67
39949;BME280;29070;48.102;-1.652;2023-04-24T04:35:41;100947.69;;;9.89;69.52
39949;BME280;29070;48.102;-1.652;2023-04-24T04:40:43;100948.13;;;9.92;69.67
39949;BME280;29070;48.102;-1.652;2023-04-24T04:45:43;100945.28;;;9.87;69.77
39949;BME280;29070;48.102;-1.652;2023-04-24T04:50:44;100957.94;;;9.84;69.81
39949;BME280;29070;48.102;-1.652;2023-04-24T04:55:45;100961.19;;;9.86;69.88
39949;BME280;29070;48.102;-1.652;2023-04-24T05:00:46;100977.34;;;9.89;69.94
39949;BME280;29070;48.102;-1.652;2023-04-24T05:05:46;100984.38;;;9.89;69.92
39949;BME280;29070;48.102;-1.652;2023-04-24T05:10:47;100989.28;;;9.92;70.02
39949;BME280;29070;48.102;-1.652;2023-04-24T05:15:47;100996.06;;;9.86;69.90
39949;BME280;29070;48.102;-1.652;2023-04-24T05:20:47;101002.94;;;9.87;70.08
39949;BME280;29070;48.102;-1.652;2023-04-24T05:25:48;101009.00;;;9.88;69.96
39949;BME280;29070;48.102;-1.652;2023-04-24T05:30:48;101018.47;;;9.89;70.08
39949;BME280;29070;48.102;-1.652;2023-04-24T05:35:48;101022.28;;;9.86;70.27
39949;BME280;29070;48.102;-1.652;2023-04-24T05:40:49;101029.88;;;9.81;70.34
39949;BME280;29070;48.102;-1.652;2023-04-24T05:45:49;101037.91;;;9.80;70.05
39949;BME280;29070;48.102;-1.652;2023-04-24T05:50:50;101033.25;;;9.75;70.20
39949;BME280;29070;48.102;-1.652;2023-04-24T05:55:50;101034.84;;;9.76;70.26
39949;BME280;29070;48.102;-1.652;2023-04-24T06:00:51;101038.22;;;9.70;70.43
39949;BME280;29070;48.102;-1.652;2023-04-24T06:05:52;101037.31;;;9.63;70.33
39949;BME280;29070;48.102;-1.652;2023-04-24T06:10:52;101038.84;;;9.57;70.37
39949;BME280;29070;48.102;-1.652;2023-04-24T06:15:53;101035.38;;;9.57;70.37
39949;BME280;29070;48.102;-1.652;2023-04-24T06:20:53;101042.09;;;9.59;70.50
39949;BME280;29070;48.102;-1.652;2023-04-24T06:25:55;101036.06;;;9.59;70.42
39949;BME280;29070;48.102;-1.652;2023-04-24T06:30:55;101035.78;;;9.53;70.56
39949;BME280;29070;48.102;-1.652;2023-04-24T06:35:56;101024.28;;;9.54;70.72
39949;BME280;29070;48.102;-1.652;2023-04-24T06:40:56;101026.03;;;9.62;70.82
39949;BME280;29070;48.102;-1.652;2023-04-24T06:45:57;101020.84;;;9.69;71.03
39949;BME280;29070;48.102;-1.652;2023-04-24T06:50:58;101024.63;;;9.81;71.16
39949;BME280;29070;48.102;-1.652;2023-04-24T06:55:58;101017.22;;;10.00;71.20
39949;BME280;29070;48.102;-1.652;2023-04-24T07:01:00;101013.25;;;10.25;71.54
39949;BME280;29070;48.102;-1.652;2023-04-24T07:06:00;101010.06;;;10.45;71.16
39949;BME280;29070;48.102;-1.652;2023-04-24T07:11:01;101016.25;;;10.59;70.75
39949;BME280;29070;48.102;-1.652;2023-04-24T07:16:01;101023.81;;;10.68;70.67
39949;BME280;29070;48.102;-1.652;2023-04-24T07:21:02;101023.31;;;10.80;70.44
39949;BME280;29070;48.102;-1.652;2023-04-24T07:26:03;101025.66;;;10.96;70.50
39949;BME280;29070;48.102;-1.652;2023-04-24T07:31:03;101036.16;;;11.18;70.37
39949;BME280;29070;48.102;-1.652;2023-04-24T07:36:04;101032.63;;;11.39;70.10
39949;BME280;29070;48.102;-1.652;2023-04-24T07:41:04;101037.94;;;11.45;69.52
39949;BME280;29070;48.102;-1.652;2023-04-24T07:46:05;101045.22;;;11.43;69.13
39949;BME280;29070;48.102;-1.652;2023-04-24T07:51:06;101046.81;;;11.44;68.75
39949;BME280;29070;48.102;-1.652;2023-04-24T07:56:06;101045.28;;;11.57;68.85
39949;BME280;29070;48.102;-1.652;2023-04-24T08:01:06;101047.25;;;11.83;69.07
39949;BME280;29070;48.102;-1.652;2023-04-24T08:06:07;101055.44;;;11.95;68.28
39949;BME280;29070;48.102;-1.652;2023-04-24T08:11:07;101051.88;;;12.09;68.20
39949;BME280;29070;48.102;-1.652;2023-04-24T08:16:08;101050.31;;;12.35;67.97
39949;BME280;29070;48.102;-1.652;2023-04-24T08:21:08;101058.22;;;12.35;67.29
39949;BME280;29070;48.102;-1.652;2023-04-24T08:26:08;101049.72;;;12.46;67.14
39949;BME280;29070;48.102;-1.652;2023-04-24T08:31:09;101053.00;;;12.62;67.27
39949;BME280;29070;48.102;-1.652;2023-04-24T08:36:09;101051.81;;;12.57;66.59
39949;BME280;29070;48.102;-1.652;2023-04-24T08:41:11;101057.88;;;12.65;66.51
39949;BME280;29070;48.102;-1.652;2023-04-24T08:46:12;101058.13;;;12.90;66.62
39949;BME280;29070;48.102;-1.652;2023-04-24T08:51:13;101063.00;;;13.13;66.14
39949;BME280;29070;48.102;-1.652;2023-04-24T08:56:13;101068.88;;;13.35;65.97
39949;BME280;29070;48.102;-1.652;2023-04-24T09:01:14;101066.84;;;13.44;65.36
39949;BME280;29070;48.102;-1.652;2023-04-24T09:06:16;101062.56;;;13.56;64.77
39949;BME280;29070;48.102;-1.652;2023-04-24T09:11:18;101051.78;;;13.64;64.83
39949;BME280;29070;48.102;-1.652;2023-04-24T09:16:19;101059.59;;;14.04;64.64
39949;BME280;29070;48.102;-1.652;2023-04-24T09:21:21;101056.28;;;14.16;63.77
39949;BME280;29070;48.102;-1.652;2023-04-24T09:26:23;101052.69;;;14.42;64.09
39949;BME280;29070;48.102;-1.652;2023-04-24T09:31:27;101051.81;;;14.55;63.32
39949;BME280;29070;48.102;-1.652;2023-04-24T09:36:32;101051.16;;;14.27;62.34
39949;BME280;29070;48.102;-1.652;2023-04-24T09:46:54;101065.03;;;14.09;62.56
39949;BME280;29070;48.102;-1.652;2023-04-24T09:52:05;101073.28;;;14.26;61.75
39949;BME280;29070;48.102;-1.652;2023-04-24T09:57:09;101068.75;;;14.40;61.39
39949;BME280;29070;48.102;-1.652;2023-04-24T10:02:20;101065.25;;;14.46;60.71
39949;BME280;29070;48.102;-1.652;2023-04-24T10:07:20;101069.38;;;14.36;61.01
39949;BME280;29070;48.102;-1.652;2023-04-24T10:12:21;101075.13;;;14.26;60.98
39949;BME280;29070;48.102;-1.652;2023-04-24T10:17:22;101065.06;;;14.41;60.05
39949;BME280;29070;48.102;-1.652;2023-04-24T10:22:23;101083.06;;;14.64;60.28
39949;BME280;29070;48.102;-1.652;2023-04-24T10:27:25;101070.81;;;14.70;59.75
39949;BME280;29070;48.102;-1.652;2023-04-24T10:32:26;101072.44;;;14.71;59.28
39949;BME280;29070;48.102;-1.652;2023-04-24T10:37:27;101077.84;;;14.58;58.85
39949;BME280;29070;48.102;-1.652;2023-04-24T10:42:28;101067.72;;;14.41;58.98
39949;BME280;29070;48.102;-1.652;2023-04-24T10:47:28;101052.34;;;14.32;58.99
39949;BME280;29070;48.102;-1.652;2023-04-24T10:52:47;101055.47;;;14.54;58.46
39949;BME280;29070;48.102;-1.652;2023-04-24T10:58:02;101043.88;;;14.61;57.61
39949;BME280;29070;48.102;-1.652;2023-04-24T11:03:04;101057.53;;;14.83;58.69
39949;BME280;29070;48.102;-1.652;2023-04-24T11:08:13;101048.72;;;15.15;57.58
39949;BME280;29070;48.102;-1.652;2023-04-24T11:13:15;101052.81;;;15.36;57.77
39949;BME280;29070;48.102;-1.652;2023-04-24T11:18:16;101055.31;;;15.74;58.27
39949;BME280;29070;48.102;-1.652;2023-04-24T11:23:17;101040.66;;;15.90;57.21
39949;BME280;29070;48.102;-1.652;2023-04-24T11:28:18;101045.66;;;15.61;56.81
39949;BME280;29070;48.102;-1.652;2023-04-24T11:33:20;101051.94;;;15.42;56.70
39949;BME280;29070;48.102;-1.652;2023-04-24T11:38:21;101050.34;;;15.16;56.42
39949;BME280;29070;48.102;-1.652;2023-04-24T11:43:22;101047.88;;;15.21;56.79
39949;BME280;29070;48.102;-1.652;2023-04-24T11:48:23;101046.13;;;15.70;57.09
39949;BME280;29070;48.102;-1.652;2023-04-24T11:53:23;101040.19;;;15.93;56.56
39949;BME280;29070;48.102;-1.652;2023-04-24T11:58:23;101046.22;;;16.19;55.88
39949;BME280;29070;48.102;-1.652;2023-04-24T12:03:24;101042.78;;;16.00;55.01
39949;BME280;29070;48.102;-1.652;2023-04-24T12:08:28;101051.69;;;15.87;54.70
39949;BME280;29070;48.102;-1.652;2023-04-24T12:13:30;101047.69;;;15.59;54.53
39949;BME280;29070;48.102;-1.652;2023-04-24T12:18:30;101043.22;;;15.60;54.89
39949;BME280;29070;48.102;-1.652;2023-04-24T12:23:35;101043.84;;;15.74;53.81
39949;BME280;29070;48.102;-1.652;2023-04-24T12:28:37;101037.13;;;15.96;54.56
39949;BME280;29070;48.102;-1.652;2023-04-24T12:33:37;101046.69;;;15.97;53.64
39949;BME280;29070;48.102;-1.652;2023-04-24T12:38:39;101035.97;;;16.23;53.62
39949;BME280;29070;48.102;-1.652;2023-04-24T12:43:51;101035.88;;;16.29;52.68
39949;BME280;29070;48.102;-1.652;2023-04-24T12:48:52;101039.28;;;16.18;53.06
39949;BME280;29070;48.102;-1.652;2023-04-24T12:53:53;101012.72;;;16.25;52.96
39949;BME280;29070;48.102;-1.652;2023-04-24T12:58:53;100998.78;;;16.29;52.59
39949;BME280;29070;48.102;-1.652;2023-04-24T13:03:53;101001.31;;;16.24;52.50
39949;BME280;29070;48.102;-1.652;2023-04-24T13:08:54;100997.53;;;16.32;52.45
39949;BME280;29070;48.102;-1.652;2023-04-24T13:13:56;100996.34;;;16.58;52.86
39949;BME280;29070;48.102;-1.652;2023-04-24T13:18:57;100993.53;;;16.83;52.43
39949;BME280;29070;48.102;-1.652;2023-04-24T13:23:57;100983.97;;;16.94;52.26
39949;BME280;29070;48.102;-1.652;2023-04-24T13:28:58;100990.94;;;17.24;51.82
39949;BME280;29070;48.102;-1.652;2023-04-24T13:33:59;100993.03;;;17.22;51.89
39949;BME280;29070;48.102;-1.652;2023-04-24T13:38:59;100988.91;;;17.14;51.59
39949;BME280;29070;48.102;-1.652;2023-04-24T13:43:59;100980.03;;;17.08;51.01
39949;BME280;29070;48.102;-1.652;2023-04-24T13:49:01;100959.22;;;17.29;51.08
39949;BME280;29070;48.102;-1.652;2023-04-24T13:54:01;100964.53;;;17.29;50.54
39949;BME280;29070;48.102;-1.652;2023-04-24T13:59:02;100951.38;;;17.34;50.36
39949;BME280;29070;48.102;-1.652;2023-04-24T14:04:02;100957.81;;;17.38;50.22
39949;BME280;29070;48.102;-1.652;2023-04-24T14:09:02;100932.81;;;17.22;49.84
39949;BME280;29070;48.102;-1.652;2023-04-24T14:14:03;100927.00;;;17.08;49.79
39949;BME280;29070;48.102;-1.652;2023-04-24T14:19:04;100929.06;;;17.06;50.13
39949;BME280;29070;48.102;-1.652;2023-04-24T14:24:05;100941.63;;;16.87;50.46
39949;BME280;29070;48.102;-1.652;2023-04-24T14:29:06;100936.66;;;16.44;51.17
39949;BME280;29070;48.102;-1.652;2023-04-24T14:34:06;100957.41;;;15.86;52.49
39949;BME280;29070;48.102;-1.652;2023-04-24T14:39:06;100963.19;;;15.46;53.58
39949;BME280;29070;48.102;-1.652;2023-04-24T14:44:07;100951.13;;;15.32;54.81
39949;BME280;29070;48.102;-1.652;2023-04-24T14:49:08;100939.81;;;15.43;56.04
39949;BME280;29070;48.102;-1.652;2023-04-24T14:54:09;100957.38;;;15.37;56.59
39949;BME280;29070;48.102;-1.652;2023-04-24T14:59:10;100953.75;;;15.50;56.78
39949;BME280;29070;48.102;-1.652;2023-04-24T15:04:10;100952.06;;;15.56;57.19
39949;BME280;29070;48.102;-1.652;2023-04-24T15:09:11;100966.84;;;15.45;57.52
39949;BME280;29070;48.102;-1.652;2023-04-24T15:14:11;100971.50;;;14.87;58.25
39949;BME280;29070;48.102;-1.652;2023-04-24T15:19:11;100943.72;;;14.53;58.93
39949;BME280;29070;48.102;-1.652;2023-04-24T15:24:12;100929.44;;;14.61;58.95
39949;BME280;29070;48.102;-1.652;2023-04-24T15:29:12;100930.75;;;14.77;59.63
39949;BME280;29070;48.102;-1.652;2023-04-24T15:34:12;100920.66;;;15.11;60.00
39949;BME280;29070;48.102;-1.652;2023-04-24T15:39:13;100930.72;;;15.39;59.66
39949;BME280;29070;48.102;-1.652;2023-04-24T15:44:13;100925.56;;;15.44;60.00
39949;BME280;29070;48.102;-1.652;2023-04-24T15:49:14;100921.28;;;15.43;59.89
39949;BME280;29070;48.102;-1.652;2023-04-24T15:54:14;100924.69;;;15.32;59.85
39949;BME280;29070;48.102;-1.652;2023-04-24T15:59:14;100923.06;;;15.49;60.06
39949;BME280;29070;48.102;-1.652;2023-04-24T16:04:15;100921.72;;;15.58;59.84
39949;BME280;29070;48.102;-1.652;2023-04-24T16:09:15;100922.03;;;15.50;59.44
39949;BME280;29070;48.102;-1.652;2023-04-24T16:14:15;100925.13;;;15.29;59.50
39949;BME280;29070;48.102;-1.652;2023-04-24T16:19:16;100935.41;;;15.18;59.17
39949;BME280;29070;48.102;-1.652;2023-04-24T16:24:16;100944.81;;;14.96;59.60
39949;BME280;29070;48.102;-1.652;2023-04-24T16:29:17;100953.34;;;14.73;59.77
39949;BME280;29070;48.102;-1.652;2023-04-24T16:34:18;100955.56;;;14.44;59.96
39949;BME280;29070;48.102;-1.652;2023-04-24T16:39:18;100960.91;;;14.37;60.04
39949;BME280;29070;48.102;-1.652;2023-04-24T16:44:19;100956.59;;;14.43;60.54
39949;BME280;29070;48.102;-1.652;2023-04-24T16:49:19;100959.59;;;14.46;60.95
39949;BME280;29070;48.102;-1.652;2023-04-24T16:54:20;100964.72;;;14.73;60.89
39949;BME280;29070;48.102;-1.652;2023-04-24T16:59:20;100962.59;;;14.82;60.70
39949;BME280;29070;48.102;-1.652;2023-04-24T17:04:20;100971.94;;;14.84;60.67
39949;BME280;29070;48.102;-1.652;2023-04-24T17:09:21;100967.41;;;14.92;60.43
39949;BME280;29070;48.102;-1.652;2023-04-24T17:14:21;100966.31;;;14.99;60.85
39949;BME280;29070;48.102;-1.652;2023-04-24T17:19:23;100975.00;;;15.06;60.58
39949;BME280;29070;48.102;-1.652;2023-04-24T17:24:25;100972.00;;;15.21;60.89
39949;BME280;29070;48.102;-1.652;2023-04-24T17:29:25;100973.56;;;15.29;60.88
39949;BME280;29070;48.102;-1.652;2023-04-24T17:34:25;100971.41;;;15.19;60.67
39949;BME280;29070;48.102;-1.652;2023-04-24T17:39:26;100972.13;;;15.08;60.70
39949;BME280;29070;48.102;-1.652;2023-04-24T17:44:26;100956.38;;;14.95;60.92
39949;BME280;29070;48.102;-1.652;2023-04-24T17:49:26;100953.66;;;14.83;61.14
39949;BME280;29070;48.102;-1.652;2023-04-24T17:54:27;100949.28;;;14.70;61.05
39949;BME280;29070;48.102;-1.652;2023-04-24T17:59:27;100988.41;;;14.55;61.56
39949;BME280;29070;48.102;-1.652;2023-04-24T18:04:27;100982.28;;;14.29;61.70
39949;BME280;29070;48.102;-1.652;2023-04-24T18:09:28;100979.66;;;14.29;61.87
39949;BME280;29070;48.102;-1.652;2023-04-24T18:14:28;100973.16;;;14.25;61.93
39949;BME280;29070;48.102;-1.652;2023-04-24T18:19:28;100983.13;;;14.23;62.30
39949;BME280;29070;48.102;-1.652;2023-04-24T18:24:29;100990.31;;;14.09;62.23
39949;BME280;29070;48.102;-1.652;2023-04-24T18:29:29;100997.72;;;13.94;62.38
39949;BME280;29070;48.102;-1.652;2023-04-24T18:34:29;100995.69;;;13.89;62.35
39949;BME280;29070;48.102;-1.652;2023-04-24T18:39:30;100997.38;;;13.77;62.67
39949;BME280;29070;48.102;-1.652;2023-04-24T18:44:30;101007.31;;;13.75;62.62
39949;BME280;29070;48.102;-1.652;2023-04-24T18:49:31;101007.13;;;13.69;62.96
39949;BME280;29070;48.102;-1.652;2023-04-24T18:54:31;101014.03;;;13.64;63.07
39949;BME280;29070;48.102;-1.652;2023-04-24T18:59:32;101025.66;;;13.56;63.40
39949;BME280;29070;48.102;-1.652;2023-04-24T19:04:32;101038.84;;;13.43;63.38
39949;BME280;29070;48.102;-1.652;2023-04-24T19:09:33;101028.34;;;13.36;63.65
39949;BME280;29070;48.102;-1.652;2023-04-24T19:14:33;101039.28;;;13.33;63.65
39949;BME280;29070;48.102;-1.652;2023-04-24T19:19:33;101047.16;;;13.20;63.77
39949;BME280;29070;48.102;-1.652;2023-04-24T19:24:34;101046.53;;;13.11;63.69
39949;BME280;29070;48.102;-1.652;2023-04-24T19:29:34;101038.66;;;13.04;63.88
39949;BME280;29070;48.102;-1.652;2023-04-24T19:34:34;101054.28;;;12.99;64.04
39949;BME280;29070;48.102;-1.652;2023-04-24T19:39:35;101051.03;;;12.90;64.06
39949;BME280;29070;48.102;-1.652;2023-04-24T19:44:35;101056.06;;;12.85;64.26
39949;BME280;29070;48.102;-1.652;2023-04-24T19:49:36;101061.34;;;12.78;64.34
39949;BME280;29070;48.102;-1.652;2023-04-24T19:54:36;101070.06;;;12.72;64.66
39949;BME280;29070;48.102;-1.652;2023-04-24T19:59:36;101085.03;;;12.65;64.78
39949;BME280;29070;48.102;-1.652;2023-04-24T20:04:37;101092.50;;;12.62;65.04
39949;BME280;29070;48.102;-1.652;2023-04-24T20:09:37;101094.31;;;12.54;65.25
39949;BME280;29070;48.102;-1.652;2023-04-24T20:14:37;101096.72;;;12.49;65.40
39949;BME280;29070;48.102;-1.652;2023-04-24T20:19:38;101108.91;;;12.50;65.76
39949;BME280;29070;48.102;-1.652;2023-04-24T20:24:39;101116.38;;;12.47;65.96
39949;BME280;29070;48.102;-1.652;2023-04-24T20:29:40;101123.44;;;12.46;65.96
39949;BME280;29070;48.102;-1.652;2023-04-24T20:34:41;101123.78;;;12.30;65.97
39949;BME280;29070;48.102;-1.652;2023-04-24T20:39:41;101137.66;;;12.10;66.21
39949;BME280;29070;48.102;-1.652;2023-04-24T20:44:43;101140.91;;;11.77;66.41
39949;BME280;29070;48.102;-1.652;2023-04-24T20:49:44;101121.00;;;11.68;66.77
39949;BME280;29070;48.102;-1.652;2023-04-24T20:54:45;101125.41;;;11.61;67.26
39949;BME280;29070;48.102;-1.652;2023-04-24T20:59:45;101137.53;;;11.62;67.39
39949;BME280;29070;48.102;-1.652;2023-04-24T21:04:46;101136.31;;;11.58;67.38
39949;BME280;29070;48.102;-1.652;2023-04-24T21:09:46;101138.25;;;11.49;67.71
39949;BME280;29070;48.102;-1.652;2023-04-24T21:14:47;101128.09;;;11.39;68.11
39949;BME280;29070;48.102;-1.652;2023-04-24T21:19:47;101137.09;;;11.30;67.83
39949;BME280;29070;48.102;-1.652;2023-04-24T21:24:47;101136.22;;;11.23;68.06
39949;BME280;29070;48.102;-1.652;2023-04-24T21:29:48;101142.25;;;11.17;68.19
39949;BME280;29070;48.102;-1.652;2023-04-24T21:34:48;101157.56;;;11.13;68.34
39949;BME280;29070;48.102;-1.652;2023-04-24T21:39:48;101142.31;;;11.02;68.56
39949;BME280;29070;48.102;-1.652;2023-04-24T21:44:49;101153.53;;;10.96;68.52
39949;BME280;29070;48.102;-1.652;2023-04-24T21:49:49;101156.31;;;10.87;68.80
39949;BME280;29070;48.102;-1.652;2023-04-24T21:54:49;101159.97;;;10.72;68.64
39949;BME280;29070;48.102;-1.652;2023-04-24T21:59:50;101146.31;;;10.61;68.93
39949;BME280;29070;48.102;-1.652;2023-04-24T22:04:50;101158.28;;;10.49;69.08
39949;BME280;29070;48.102;-1.652;2023-04-24T22:09:51;101161.00;;;10.41;69.18
39949;BME280;29070;48.102;-1.652;2023-04-24T22:14:52;101154.84;;;10.34;69.15
39949;BME280;29070;48.102;-1.652;2023-04-24T22:19:52;101153.84;;;10.20;69.34
39949;BME280;29070;48.102;-1.652;2023-04-24T22:24:53;101146.97;;;10.19;69.24
39949;BME280;29070;48.102;-1.652;2023-04-24T22:29:53;101150.94;;;10.15;69.45
39949;BME280;29070;48.102;-1.652;2023-04-24T22:34:53;101150.84;;;10.08;69.55
39949;BME280;29070;48.102;-1.652;2023-04-24T22:39:54;101148.97;;;10.02;69.41
39949;BME280;29070;48.102;-1.652;2023-04-24T22:44:54;101140.72;;;9.90;69.67
39949;BME280;29070;48.102;-1.652;2023-04-24T22:49:55;101139.47;;;9.86;69.71
39949;BME280;29070;48.102;-1.652;2023-04-24T22:54:57;101143.63;;;9.80;69.84
39949;BME280;29070;48.102;-1.652;2023-04-24T22:59:57;101152.81;;;9.76;70.01
39949;BME280;29070;48.102;-1.652;2023-04-24T23:04:57;101152.53;;;9.71;69.90
39949;BME280;29070;48.102;-1.652;2023-04-24T23:09:58;101156.50;;;9.67;70.02
39949;BME280;29070;48.102;-1.652;2023-04-24T23:14:58;101159.84;;;9.61;70.33
39949;BME280;29070;48.102;-1.652;2023-04-24T23:19:59;101156.94;;;9.56;70.17
39949;BME280;29070;48.102;-1.652;2023-04-24T23:24:59;101150.44;;;9.51;70.30
39949;BME280;29070;48.102;-1.652;2023-04-24T23:30:00;101147.88;;;9.43;70.50
39949;BME280;29070;48.102;-1.652;2023-04-24T23:35:00;101151.56;;;9.34;70.58
39949;BME280;29070;48.102;-1.652;2023-04-24T23:40:00;101160.94;;;9.28;70.66
39949;BME280;29070;48.102;-1.652;2023-04-24T23:45:02;101154.56;;;9.23;71.11
39949;BME280;29070;48.102;-1.652;2023-04-24T23:50:02;101171.81;;;9.17;71.00
39949;BME280;29070;48.102;-1.652;2023-04-24T23:55:04;101168.72;;;9.13;70.87
